Time;durP1;ratioP1;P1;durP2;ratioP2;P2;SDS_P1;SDS_P2;PMS_P1;PMS_P2;Temp;Humidity;BMP_temperature;BMP_pressure;BME280_temperature;BME280_humidity;BME280_pressure;Samples;Min_cycle;Max_cycle;Signal;HPM_P1;HPM_P2
2022/12/29 00:02:16;;;;;;;2.65;1.38;;;9.80;56.90;;;;;;5013397;28;20033;-76
2022/12/29 00:04:42;;;;;;;2.15;1.00;;;9.70;57.30;;;;;;5012336;28;20470;-76
2022/12/29 00:07:08;;;;;;;3.75;1.30;;;9.60;57.50;;;;;;5013415;28;20018;-75
2022/12/29 00:09:34;;;;;;;2.78;1.20;;;9.60;57.90;;;;;;5012990;28;20021;-75
2022/12/29 00:12:02;;;;;;;3.30;1.00;;;9.50;58.30;;;;;;5012889;28;20034;-75
2022/12/29 00:17:12;;;;;;;7.75;1.63;;;9.30;59.60;;;;;;5013388;28;20041;-77
2022/12/29 00:36:16;;;;;;;5.05;1.30;;;9.50;57.90;;;;;;5013431;28;20077;-75
2022/12/29 00:44:18;;;;;;;5.40;1.70;;;10.00;55.70;;;;;;5012895;28;20445;-74
2022/12/29 00:46:43;;;;;;;5.07;1.27;;;10.00;56.20;;;;;;5011852;28;20034;-74
2022/12/29 00:49:30;;;;;;;3.63;0.90;;;9.90;56.40;;;;;;5013115;28;20034;-74
2022/12/29 00:51:57;;;;;;;6.22;0.90;;;9.90;56.30;;;;;;5013102;28;20041;-75
2022/12/29 00:54:23;;;;;;;1.80;0.68;;;10.20;54.80;;;;;;5012980;28;20042;-77
2022/12/29 00:56:50;;;;;;;6.50;1.08;;;10.50;53.90;;;;;;5013074;28;20025;-76
2022/12/29 00:59:16;;;;;;;3.17;1.15;;;10.50;53.60;;;;;;5011451;28;20161;-77
2022/12/29 01:01:42;;;;;;;7.63;0.88;;;10.60;53.00;;;;;;5012883;28;20401;-75
2022/12/29 01:04:09;;;;;;;4.55;0.90;;;10.70;53.30;;;;;;5012798;28;20018;-76
2022/12/29 01:06:37;;;;;;;1.73;0.63;;;10.80;52.00;;;;;;5012872;28;20382;-77
2022/12/29 01:11:47;;;;;;;2.45;1.10;;;10.80;52.00;;;;;;5012882;28;20036;-76
2022/12/29 01:14:13;;;;;;;2.03;0.70;;;10.80;52.00;;;;;;5012989;28;20029;-76
2022/12/29 01:16:39;;;;;;;4.57;1.27;;;10.70;52.30;;;;;;5012772;28;20022;-76
2022/12/29 01:19:04;;;;;;;1.83;0.73;;;10.70;51.60;;;;;;5012805;28;20528;-75
2022/12/29 01:21:30;;;;;;;3.15;1.35;;;10.70;52.50;;;;;;5011402;28;20553;-75
2022/12/29 01:23:56;;;;;;;3.22;1.27;;;10.60;52.60;;;;;;5015369;28;20060;-75
2022/12/29 01:26:21;;;;;;;2.10;0.70;;;10.70;52.20;;;;;;5016058;28;20030;-74
2022/12/29 01:28:47;;;;;;;2.53;0.80;;;10.70;51.60;;;;;;5016336;28;20033;-74
2022/12/29 01:31:14;;;;;;;1.40;0.77;;;10.80;51.50;;;;;;5016249;28;20475;-74
2022/12/29 01:33:40;;;;;;;4.43;0.80;;;10.80;51.40;;;;;;5016251;28;20026;-74
2022/12/29 01:36:08;;;;;;;3.42;0.85;;;10.80;51.00;;;;;;5015847;28;20490;-74
2022/12/29 01:38:35;;;;;;;3.10;0.82;;;10.90;50.80;;;;;;5016068;28;20418;-75
2022/12/29 01:41:02;;;;;;;3.05;0.90;;;11.00;50.00;;;;;;5015730;28;20058;-74
2022/12/29 01:43:45;;;;;;;3.45;0.95;;;11.00;50.20;;;;;;5015822;28;20022;-74
2022/12/29 01:46:27;;;;;;;2.47;0.88;;;10.90;51.40;;;;;;5015773;28;20367;-75
2022/12/29 01:49:07;;;;;;;7.60;0.88;;;10.80;51.20;;;;;;5015859;28;20022;-75
2022/12/29 01:51:44;;;;;;;6.32;1.00;;;10.80;50.70;;;;;;5015734;28;20022;-75
2022/12/29 01:54:15;;;;;;;1.35;0.80;;;10.80;50.10;;;;;;5015449;28;20057;-75
2022/12/29 01:56:42;;;;;;;1.40;0.77;;;10.80;50.70;;;;;;5015750;28;20022;-75
2022/12/29 01:59:15;;;;;;;5.22;1.17;;;10.80;50.70;;;;;;5015556;28;20030;-75
2022/12/29 02:01:40;;;;;;;5.00;1.15;;;10.70;51.90;;;;;;5014322;28;20116;-77
2022/12/29 02:04:09;;;;;;;3.78;0.90;;;10.60;51.00;;;;;;5015566;28;20160;-77
2022/12/29 02:06:45;;;;;;;4.10;0.73;;;10.70;50.90;;;;;;5015656;28;20033;-77
2022/12/29 02:09:11;;;;;;;3.33;1.00;;;10.70;50.60;;;;;;5015156;28;20026;-73
2022/12/29 02:11:39;;;;;;;3.22;0.60;;;10.80;50.50;;;;;;5015306;28;20033;-75
2022/12/29 02:14:12;;;;;;;2.60;0.82;;;10.80;49.50;;;;;;5015506;28;20093;-74
2022/12/29 02:16:56;;;;;;;4.78;1.02;;;10.90;49.70;;;;;;5015317;28;20103;-74
2022/12/29 02:19:30;;;;;;;2.13;0.80;;;10.90;49.40;;;;;;5015046;28;20037;-77
2022/12/29 02:22:18;;;;;;;3.03;0.63;;;10.90;49.20;;;;;;5015169;28;20077;-76
2022/12/29 02:25:02;;;;;;;4.78;1.20;;;10.90;49.20;;;;;;5022557;28;20097;-78
2022/12/29 02:28:02;;;;;;;2.75;1.00;;;10.90;48.90;;;;;;5015059;28;20029;-77
2022/12/29 02:30:50;;;;;;;4.00;0.82;;;10.90;49.20;;;;;;5014878;28;20056;-76
2022/12/29 02:33:34;;;;;;;3.40;0.85;;;10.90;49.20;;;;;;5014943;28;20363;-76
2022/12/29 02:36:11;;;;;;;1.40;0.63;;;10.90;49.20;;;;;;5014360;28;20025;-76
2022/12/29 02:38:43;;;;;;;8.45;1.00;;;10.80;49.30;;;;;;5014596;28;20030;-75
2022/12/29 02:41:25;;;;;;;1.08;0.75;;;10.80;49.40;;;;;;5014532;28;20054;-76
2022/12/29 02:44:01;;;;;;;2.15;0.80;;;10.80;49.60;;;;;;5014805;28;20466;-75
2022/12/29 02:46:44;;;;;;;1.58;0.77;;;10.80;49.60;;;;;;5014695;28;20057;-75
2022/12/29 02:49:13;;;;;;;3.05;0.88;;;10.70;49.70;;;;;;5014561;28;20026;-75
2022/12/29 02:51:59;;;;;;;4.03;0.90;;;10.70;50.10;;;;;;5014669;28;20496;-76
2022/12/29 02:54:40;;;;;;;;;;;10.60;50.30;;;;;;5015089;28;20022;-76
2022/12/29 02:57:34;;;;;;;3.03;0.98;;;10.70;50.10;;;;;;5014486;28;20281;-76
2022/12/29 03:00:07;;;;;;;4.60;0.90;;;10.70;50.30;;;;;;5014411;28;20517;-74
2022/12/29 03:02:57;;;;;;;2.50;0.90;;;10.70;50.20;;;;;;5014326;28;20030;-74
2022/12/29 03:05:41;;;;;;;1.90;0.80;;;10.70;50.40;;;;;;5014312;28;20112;-75
2022/12/29 03:08:29;;;;;;;3.25;1.08;;;10.70;50.50;;;;;;5014425;28;20029;-75
2022/12/29 03:17:09;;;;;;;3.67;0.90;;;10.60;50.80;;;;;;5014194;28;20129;-75
2022/12/29 03:19:38;;;;;;;2.10;0.75;;;10.70;50.90;;;;;;5014125;28;20022;-75
2022/12/29 03:25:05;;;;;;;3.10;1.00;;;10.60;51.20;;;;;;5014192;28;20029;-75
2022/12/29 03:27:38;;;;;;;5.00;0.85;;;10.60;51.30;;;;;;5013970;28;20473;-76
2022/12/29 03:30:05;;;;;;;3.00;0.82;;;10.60;51.50;;;;;;5014043;28;20037;-75
2022/12/29 03:32:48;;;;;;;2.35;1.00;;;10.50;51.90;;;;;;5013662;28;20026;-75
2022/12/29 03:35:17;;;;;;;3.63;0.82;;;10.40;52.00;;;;;;5013840;28;20488;-74
2022/12/29 03:37:52;;;;;;;3.92;0.88;;;10.40;52.20;;;;;;5013913;28;20101;-75
2022/12/29 03:40:20;;;;;;;;;;;10.40;52.50;;;;;;5013854;28;20046;-75
2022/12/29 03:42:47;;;;;;;3.65;0.90;;;10.50;52.50;;;;;;5013840;28;19928;-75
2022/12/29 03:45:13;;;;;;;2.60;0.70;;;10.40;52.60;;;;;;5013590;28;20524;-75
2022/12/29 03:47:39;;;;;;;5.03;1.17;;;10.40;52.60;;;;;;5012720;28;20052;-73
2022/12/29 03:50:05;;;;;;;2.55;1.08;;;10.40;52.80;;;;;;5013524;28;20471;-74
2022/12/29 03:52:31;;;;;;;4.47;1.35;;;10.40;52.60;;;;;;5013604;28;20037;-78
2022/12/29 03:54:56;;;;;;;4.63;0.88;;;10.40;52.50;;;;;;5013738;28;20034;-76
2022/12/29 03:57:22;;;;;;;2.78;1.02;;;10.40;52.60;;;;;;5012254;28;20080;-76
2022/12/29 03:59:48;;;;;;;6.43;1.30;;;10.30;52.90;;;;;;5013414;28;20045;-76
2022/12/29 04:02:13;;;;;;;3.50;1.17;;;10.30;53.20;;;;;;5013428;28;20018;-75
2022/12/29 04:04:38;;;;;;;2.75;1.02;;;10.20;53.30;;;;;;5013240;28;20069;-75
2022/12/29 04:07:04;;;;;;;3.05;1.25;;;10.10;54.30;;;;;;5013394;28;20356;-75
2022/12/29 04:09:31;;;;;;;4.03;1.40;;;10.10;53.70;;;;;;5013292;28;20101;-75
2022/12/29 04:11:56;;;;;;;2.97;0.60;;;10.00;54.10;;;;;;5013210;28;20486;-75
2022/12/29 04:14:22;;;;;;;2.22;1.00;;;9.90;54.40;;;;;;5013252;28;20068;-75
2022/12/29 04:16:47;;;;;;;5.10;1.10;;;9.90;54.40;;;;;;5013179;28;20026;-75
2022/12/29 04:19:13;;;;;;;2.53;1.00;;;9.90;54.60;;;;;;5013108;28;20032;-75
2022/12/29 04:21:38;;;;;;;2.67;1.35;;;10.00;54.40;;;;;;5013026;28;20042;-75
2022/12/29 04:24:06;;;;;;;3.30;1.38;;;10.00;54.30;;;;;;5013235;28;20018;-75
2022/12/29 04:26:32;;;;;;;2.25;1.10;;;10.00;54.40;;;;;;5012985;28;20121;-75
2022/12/29 04:28:58;;;;;;;5.82;1.38;;;10.00;54.90;;;;;;5013091;28;20037;-76
2022/12/29 04:31:23;;;;;;;2.42;0.90;;;10.00;54.80;;;;;;5012992;28;20411;-75
2022/12/29 04:33:49;;;;;;;5.82;1.30;;;10.00;54.50;;;;;;5013153;28;20030;-75
2022/12/29 04:36:14;;;;;;;2.58;1.15;;;10.10;54.40;;;;;;5012965;28;20487;-75
2022/12/29 04:38:40;;;;;;;2.58;1.25;;;10.20;54.10;;;;;;5012972;28;20018;-75
2022/12/29 04:41:05;;;;;;;2.90;1.02;;;10.30;54.30;;;;;;5012727;28;20180;-75
2022/12/29 04:43:31;;;;;;;3.10;1.00;;;10.40;53.60;;;;;;5012700;28;20101;-74
2022/12/29 04:45:57;;;;;;;5.00;1.52;;;10.40;53.40;;;;;;5012893;28;20114;-75
2022/12/29 04:48:22;;;;;;;1.60;1.10;;;10.50;53.70;;;;;;5012948;28;20051;-74
2022/12/29 04:50:49;;;;;;;4.50;1.23;;;10.50;53.70;;;;;;5012938;28;20022;-75
2022/12/29 04:53:15;;;;;;;5.35;1.50;;;10.50;53.70;;;;;;5012683;28;20030;-75
2022/12/29 04:55:41;;;;;;;6.13;1.15;;;10.50;53.80;;;;;;5012577;28;20018;-74
2022/12/29 04:58:06;;;;;;;3.13;1.05;;;10.50;53.90;;;;;;5014286;28;20026;-73
2022/12/29 05:00:32;;;;;;;3.00;1.08;;;10.60;53.80;;;;;;5016716;28;20037;-74
2022/12/29 05:02:58;;;;;;;2.97;0.95;;;10.50;53.90;;;;;;5016361;28;20026;-74
2022/12/29 05:05:24;;;;;;;2.20;0.98;;;10.50;54.00;;;;;;5016548;28;20030;-74
2022/12/29 05:07:50;;;;;;;3.78;1.05;;;10.40;54.20;;;;;;5016730;28;20037;-74
2022/12/29 05:10:16;;;;;;;4.05;1.42;;;10.50;54.50;;;;;;5016696;28;20572;-74
2022/12/29 05:12:42;;;;;;;2.53;1.02;;;10.50;54.50;;;;;;5022853;28;20018;-74
2022/12/29 05:15:09;;;;;;;3.85;1.20;;;10.60;54.30;;;;;;5016532;28;20040;-74
2022/12/29 05:17:34;;;;;;;3.33;1.20;;;10.60;54.60;;;;;;5016353;28;20026;-75
2022/12/29 05:20:00;;;;;;;2.50;1.10;;;10.70;54.70;;;;;;5016218;28;20142;-74
2022/12/29 05:22:25;;;;;;;5.68;1.25;;;10.70;54.60;;;;;;5016379;28;20053;-74
2022/12/29 05:24:51;;;;;;;2.63;0.90;;;10.70;54.90;;;;;;5016320;28;20036;-74
2022/12/29 05:27:17;;;;;;;3.20;1.20;;;10.60;55.20;;;;;;5016233;28;20085;-74
2022/12/29 05:29:42;;;;;;;3.20;1.17;;;10.50;55.30;;;;;;5016203;28;20031;-74
2022/12/29 05:32:08;;;;;;;4.47;1.10;;;10.60;55.40;;;;;;5016215;28;20029;-74
2022/12/29 05:34:34;;;;;;;3.40;1.30;;;10.50;55.50;;;;;;5016072;28;20084;-75
2022/12/29 05:37:00;;;;;;;3.35;1.13;;;10.50;55.40;;;;;;5016027;28;20479;-74
2022/12/29 05:39:26;;;;;;;3.35;1.10;;;10.50;55.70;;;;;;5015817;28;20538;-74
2022/12/29 05:41:51;;;;;;;1.83;1.00;;;10.50;56.00;;;;;;5015810;28;20141;-74
2022/12/29 05:44:17;;;;;;;5.97;1.45;;;10.40;56.20;;;;;;5016013;28;20053;-74
2022/12/29 05:46:42;;;;;;;1.45;1.20;;;10.40;56.60;;;;;;5015843;28;20037;-74
2022/12/29 05:49:08;;;;;;;5.45;1.80;;;10.40;56.80;;;;;;5015815;28;20018;-74
2022/12/29 05:51:33;;;;;;;3.10;1.30;;;10.40;57.10;;;;;;5014842;28;20033;-74
2022/12/29 05:53:59;;;;;;;7.05;1.48;;;10.40;57.50;;;;;;5015735;28;20022;-74
2022/12/29 05:56:24;;;;;;;3.60;1.63;;;10.40;57.70;;;;;;5015481;28;20101;-74
2022/12/29 05:58:50;;;;;;;2.72;1.20;;;10.40;57.90;;;;;;5015753;28;20107;-75
2022/12/29 06:01:15;;;;;;;7.40;1.50;;;10.30;58.30;;;;;;5015713;28;20113;-75
2022/12/29 06:03:41;;;;;;;2.70;1.50;;;10.40;58.30;;;;;;5015713;28;20097;-75
2022/12/29 06:06:07;;;;;;;4.32;1.30;;;10.40;58.30;;;;;;5015696;28;20037;-75
2022/12/29 06:08:33;;;;;;;4.85;1.73;;;10.40;58.40;;;;;;5015564;28;20028;-75
2022/12/29 06:10:59;;;;;;;5.25;1.30;;;10.40;58.20;;;;;;5014800;28;20018;-75
2022/12/29 06:13:24;;;;;;;4.03;1.00;;;10.40;58.50;;;;;;5016105;28;20030;-74
2022/12/29 06:15:50;;;;;;;3.50;1.30;;;10.40;58.30;;;;;;5016417;28;20415;-74
2022/12/29 06:18:16;;;;;;;7.30;1.75;;;10.40;58.20;;;;;;5015879;28;20542;-74
2022/12/29 06:20:42;;;;;;;4.00;1.10;;;10.50;58.00;;;;;;5015366;28;20124;-74
2022/12/29 06:23:08;;;;;;;2.50;1.08;;;10.60;58.00;;;;;;5015758;28;20053;-74
2022/12/29 06:25:35;;;;;;;3.40;1.33;;;10.60;57.80;;;;;;5015256;28;20108;-74
2022/12/29 06:28:01;;;;;;;4.93;1.08;;;10.70;57.70;;;;;;5015119;28;20018;-74
2022/12/29 06:30:27;;;;;;;2.00;1.00;;;10.70;57.60;;;;;;5015213;28;20021;-74
2022/12/29 06:32:54;;;;;;;2.42;1.00;;;10.70;57.60;;;;;;5015119;28;20018;-74
2022/12/29 06:35:19;;;;;;;3.97;0.90;;;10.70;57.30;;;;;;5015168;28;20025;-75
2022/12/29 06:37:45;;;;;;;4.57;1.20;;;10.70;57.70;;;;;;5013848;28;20351;-75
2022/12/29 06:40:11;;;;;;;4.03;1.30;;;10.70;57.70;;;;;;5014711;28;20069;-75
2022/12/29 06:42:37;;;;;;;4.10;1.35;;;10.70;57.90;;;;;;5014829;28;20026;-75
2022/12/29 06:45:03;;;;;;;1.67;1.00;;;10.70;57.70;;;;;;5015333;28;20100;-76
2022/12/29 06:47:29;;;;;;;3.40;1.00;;;10.70;57.80;;;;;;5014990;28;20394;-75
2022/12/29 06:49:55;;;;;;;4.30;1.48;;;10.70;57.90;;;;;;5014828;28;20030;-75
2022/12/29 06:52:20;;;;;;;3.45;1.20;;;10.70;58.20;;;;;;5014618;28;20014;-75
2022/12/29 06:54:46;;;;;;;4.07;1.00;;;10.70;58.50;;;;;;5014516;28;20026;-75
2022/12/29 06:57:11;;;;;;;1.83;0.82;;;10.60;58.70;;;;;;5014633;28;20036;-75
2022/12/29 06:59:37;;;;;;;1.38;0.90;;;10.60;59.00;;;;;;5014500;28;20113;-74
2022/12/29 07:02:02;;;;;;;2.33;1.02;;;10.60;59.00;;;;;;5014538;28;20028;-74
2022/12/29 07:04:28;;;;;;;1.92;0.90;;;10.60;59.10;;;;;;5014334;28;20029;-74
2022/12/29 07:06:54;;;;;;;4.22;0.88;;;10.60;59.20;;;;;;5014193;28;20048;-74
2022/12/29 07:09:19;;;;;;;4.18;0.88;;;10.60;59.00;;;;;;5014313;28;20047;-74
2022/12/29 07:11:45;;;;;;;2.60;1.00;;;10.60;59.10;;;;;;5014166;28;20455;-74
2022/12/29 07:14:11;;;;;;;2.38;0.93;;;10.50;59.10;;;;;;5014198;28;20394;-74
2022/12/29 07:16:37;;;;;;;3.10;1.25;;;10.60;58.80;;;;;;5014170;28;20030;-74
2022/12/29 07:19:03;;;;;;;2.72;1.00;;;10.70;57.90;;;;;;5013969;28;20022;-75
2022/12/29 07:21:29;;;;;;;5.03;1.60;;;10.70;58.10;;;;;;5013800;28;20057;-75
2022/12/29 07:23:55;;;;;;;3.55;1.00;;;10.60;58.20;;;;;;5014151;28;20022;-75
2022/12/29 07:26:21;;;;;;;1.80;0.90;;;10.60;58.00;;;;;;5014247;28;20026;-76
2022/12/29 07:28:46;;;;;;;5.07;1.02;;;10.60;57.50;;;;;;5013851;28;20429;-76
2022/12/29 07:31:21;;;;;;;8.52;1.33;;;10.50;57.60;;;;;;5013847;28;20025;-75
2022/12/29 07:33:47;;;;;;;4.83;1.17;;;10.60;56.90;;;;;;5013861;28;20033;-75
2022/12/29 07:36:13;;;;;;;1.83;1.05;;;10.60;56.40;;;;;;5013767;28;20028;-75
2022/12/29 07:38:40;;;;;;;2.10;1.00;;;10.80;55.60;;;;;;5014006;28;20378;-75
2022/12/29 07:41:05;;;;;;;10.48;1.40;;;10.80;55.20;;;;;;5013552;28;20133;-75
2022/12/29 07:43:31;;;;;;;4.32;1.75;;;10.90;55.20;;;;;;5013631;28;20501;-76
2022/12/29 07:45:56;;;;;;;3.13;1.20;;;10.90;55.20;;;;;;5013637;28;20071;-75
2022/12/29 07:48:22;;;;;;;2.90;1.20;;;10.90;54.70;;;;;;5013584;28;20026;-76
2022/12/29 07:50:48;;;;;;;3.90;1.05;;;11.00;54.50;;;;;;5013718;28;20030;-76
2022/12/29 07:53:14;;;;;;;2.35;1.00;;;11.10;54.00;;;;;;5013489;28;20090;-75
2022/12/29 07:55:40;;;;;;;6.55;1.30;;;11.20;54.00;;;;;;5013552;28;20033;-74
2022/12/29 07:58:06;;;;;;;3.75;1.20;;;11.30;53.40;;;;;;5013689;28;20061;-74
2022/12/29 08:00:31;;;;;;;3.60;1.27;;;11.30;53.20;;;;;;5013247;28;20049;-74
2022/12/29 08:02:57;;;;;;;3.90;1.20;;;11.40;53.00;;;;;;5013387;28;20037;-74
2022/12/29 08:05:22;;;;;;;2.53;0.98;;;11.40;52.90;;;;;;5013048;28;20030;-74
2022/12/29 08:07:48;;;;;;;2.67;1.08;;;11.30;53.40;;;;;;5013267;28;20105;-74
2022/12/29 08:10:15;;;;;;;2.95;1.10;;;11.30;53.40;;;;;;5013219;28;20032;-74
2022/12/29 08:12:41;;;;;;;4.63;1.02;;;11.30;53.30;;;;;;5013166;28;20034;-74
2022/12/29 08:15:08;;;;;;;2.25;1.10;;;11.40;53.30;;;;;;5013234;28;20113;-72
2022/12/29 08:17:34;;;;;;;3.10;0.93;;;11.40;54.10;;;;;;5013217;28;20429;-72
2022/12/29 08:19:59;;;;;;;4.45;1.58;;;11.50;53.10;;;;;;5012998;28;20040;-73
2022/12/29 08:22:25;;;;;;;1.88;1.02;;;11.50;53.00;;;;;;5011734;28;20026;-72
2022/12/29 08:24:51;;;;;;;2.47;1.17;;;11.50;53.10;;;;;;5013250;28;20058;-76
2022/12/29 08:27:17;;;;;;;3.22;0.90;;;11.50;53.60;;;;;;5013138;28;20026;-75
2022/12/29 08:29:43;;;;;;;3.22;1.13;;;11.60;54.60;;;;;;5013520;28;20026;-80
2022/12/29 08:32:08;;;;;;;1.63;1.10;;;11.60;53.40;;;;;;5013683;28;20041;-78
2022/12/29 08:34:34;;;;;;;3.28;1.40;;;11.60;54.00;;;;;;5017777;28;20045;-77
2022/12/29 08:37:00;;;;;;;2.80;1.55;;;11.70;54.00;;;;;;5017266;28;20026;-82
2022/12/29 08:39:25;;;;;;;3.55;1.25;;;11.60;54.40;;;;;;5016168;28;20036;-78
2022/12/29 08:41:51;;;;;;;2.83;1.20;;;11.60;54.90;;;;;;5017355;28;20057;-77
2022/12/29 08:44:16;;;;;;;3.70;1.13;;;11.50;55.40;;;;;;5017009;28;20026;-77
2022/12/29 08:46:42;;;;;;;7.30;1.60;;;11.40;55.60;;;;;;5017058;28;20026;-85
2022/12/29 08:49:08;;;;;;;4.03;1.17;;;11.40;56.50;;;;;;5017058;28;20498;-79
2022/12/29 08:51:33;;;;;;;2.65;1.10;;;11.40;56.00;;;;;;5015739;28;20018;-77
2022/12/29 08:53:59;;;;;;;5.13;1.55;;;11.40;56.10;;;;;;5016789;28;20025;-74
2022/12/29 08:56:25;;;;;;;3.45;1.10;;;11.30;57.20;;;;;;5016828;28;20045;-73
2022/12/29 08:58:52;;;;;;;3.28;1.17;;;11.20;57.40;;;;;;5016653;28;20084;-76
2022/12/29 09:01:18;;;;;;;4.75;1.42;;;11.00;58.60;;;;;;5016439;28;20049;-73
2022/12/29 09:03:43;;;;;;;3.90;1.30;;;11.00;59.20;;;;;;5014854;28;20018;-75
2022/12/29 09:06:09;;;;;;;4.45;1.40;;;10.80;59.60;;;;;;5016426;28;20025;-73
2022/12/29 09:08:35;;;;;;;3.90;1.55;;;10.80;60.10;;;;;;5016607;28;20455;-72
2022/12/29 09:11:13;;;;;;;3.75;1.25;;;10.80;60.70;;;;;;5016199;28;20018;-72
2022/12/29 09:13:39;;;;;;;8.38;1.55;;;10.80;60.80;;;;;;5016004;28;20033;-72
2022/12/29 09:16:05;;;;;;;2.80;1.10;;;10.80;60.90;;;;;;5016374;28;20033;-73
2022/12/29 09:18:31;;;;;;;3.42;1.20;;;10.70;61.00;;;;;;5016019;28;20185;-73
2022/12/29 09:21:04;;;;;;;2.65;1.17;;;10.70;60.80;;;;;;5016007;28;20474;-73
2022/12/29 09:23:30;;;;;;;5.10;1.42;;;10.60;61.20;;;;;;5016268;28;20116;-72
2022/12/29 09:25:56;;;;;;;2.70;1.25;;;10.60;61.40;;;;;;5016005;28;20065;-72
2022/12/29 09:28:22;;;;;;;3.58;1.25;;;10.70;61.00;;;;;;5015736;28;20022;-73
2022/12/29 09:30:48;;;;;;;1.67;0.88;;;10.70;61.60;;;;;;5015854;28;20064;-73
2022/12/29 09:33:14;;;;;;;3.63;1.45;;;10.70;61.50;;;;;;5015536;28;20049;-74
2022/12/29 09:35:44;;;;;;;4.80;1.05;;;10.80;61.00;;;;;;5015863;28;20077;-72
2022/12/29 09:38:10;;;;;;;1.00;0.98;;;10.80;62.20;;;;;;5017509;28;20382;-72
2022/12/29 09:40:36;;;;;;;6.85;1.13;;;10.70;61.70;;;;;;5015704;28;20555;-73
2022/12/29 09:43:17;;;;;;;3.70;1.20;;;10.70;62.00;;;;;;5015933;28;20054;-73
2022/12/29 09:45:55;;;;;;;3.20;1.23;;;10.70;62.30;;;;;;5014788;28;20029;-74
2022/12/29 09:48:30;;;;;;;2.45;0.90;;;10.80;62.40;;;;;;5015602;28;20026;-73
2022/12/29 09:50:58;;;;;;;1.77;1.10;;;10.80;62.70;;;;;;5015815;28;20030;-73
2022/12/29 09:53:30;;;;;;;2.28;1.00;;;10.80;62.40;;;;;;5015224;28;20022;-73
2022/12/29 09:55:59;;;;;;;4.97;1.33;;;10.90;62.30;;;;;;5015325;28;20471;-74
2022/12/29 09:58:41;;;;;;;3.33;1.10;;;10.80;62.90;;;;;;5015348;28;20022;-74
2022/12/29 10:01:13;;;;;;;2.60;1.15;;;10.80;63.10;;;;;;5014255;28;20041;-73
2022/12/29 10:03:46;;;;;;;10.32;1.65;;;10.80;63.10;;;;;;5015296;28;20498;-73
2022/12/29 10:06:34;;;;;;;2.95;0.95;;;10.80;63.50;;;;;;5015666;28;20500;-77
2022/12/29 10:09:34;;;;;;;3.13;1.02;;;10.80;63.60;;;;;;5015388;28;20113;-74
2022/12/29 10:12:26;;;;;;;2.15;1.20;;;10.80;63.60;;;;;;5015048;28;20026;-73
2022/12/29 10:15:09;;;;;;;3.50;1.30;;;10.80;63.60;;;;;;5015074;28;20025;-74
2022/12/29 10:18:04;;;;;;;3.95;1.30;;;10.80;63.40;;;;;;5014503;28;20029;-75
2022/12/29 10:20:47;;;;;;;2.90;0.95;;;10.90;64.10;;;;;;5004151;28;20026;-74
2022/12/29 10:23:48;;;;;;;3.42;1.10;;;10.90;63.20;;;;;;5012525;28;20538;-75
2022/12/29 10:26:20;;;;;;;4.80;1.27;;;10.90;63.40;;;;;;5012993;28;20505;-75
2022/12/29 10:29:03;;;;;;;3.17;1.13;;;10.80;63.40;;;;;;5011610;28;20029;-73
2022/12/29 10:31:37;;;;;;;2.00;1.20;;;10.80;63.60;;;;;;5010377;28;20037;-73
2022/12/29 10:34:14;;;;;;;2.58;1.05;;;10.80;63.90;;;;;;5012406;28;20028;-73
2022/12/29 10:36:47;;;;;;;2.10;1.23;;;10.90;64.40;;;;;;5012164;28;20030;-73
2022/12/29 10:39:32;;;;;;;2.90;1.17;;;10.80;66.40;;;;;;5012574;28;20029;-73
2022/12/29 10:42:12;;;;;;;1.70;1.08;;;10.80;66.00;;;;;;5011416;28;20519;-74
2022/12/29 10:44:38;;;;;;;2.08;1.30;;;10.80;66.70;;;;;;5012102;28;20026;-73
2022/12/29 10:47:09;;;;;;;5.03;1.55;;;10.70;67.20;;;;;;4996122;28;20022;-72
2022/12/29 10:49:42;;;;;;;2.70;1.70;;;10.70;67.40;;;;;;5012638;28;20064;-77
2022/12/29 10:52:10;;;;;;;3.67;1.25;;;10.70;67.90;;;;;;5008383;28;20521;-74
2022/12/29 10:55:14;;;;;;;3.65;1.15;;;10.60;68.20;;;;;;4995733;28;20390;-73
2022/12/29 10:57:45;;;;;;;2.47;0.98;;;10.60;68.70;;;;;;4995709;28;20080;-74
2022/12/29 11:00:21;;;;;;;4.93;1.02;;;10.70;69.70;;;;;;5011576;28;20032;-74
2022/12/29 11:03:14;;;;;;;4.22;1.60;;;10.60;69.70;;;;;;5002111;28;20492;-73
2022/12/29 11:05:41;;;;;;;3.38;1.10;;;10.50;69.20;;;;;;5011242;28;20140;-74
2022/12/29 11:08:13;;;;;;;7.15;1.50;;;10.60;69.20;;;;;;5011219;28;20104;-75
2022/12/29 11:10:43;;;;;;;3.40;1.55;;;10.60;69.60;;;;;;5011572;28;20021;-74
2022/12/29 11:13:51;;;;;;;4.97;1.63;;;10.50;69.90;;;;;;5011299;28;20101;-74
2022/12/29 11:16:30;;;;;;;2.97;1.48;;;10.40;71.20;;;;;;4916997;29;20024;-75
2022/12/29 11:18:56;;;;;;;6.25;1.60;;;10.40;72.10;;;;;;4915681;29;20366;-74
2022/12/29 11:21:33;;;;;;;2.42;1.13;;;10.40;71.80;;;;;;4970616;28;20038;-76
2022/12/29 11:24:02;;;;;;;2.88;1.02;;;10.40;70.80;;;;;;5011269;28;20482;-74
2022/12/29 11:26:29;;;;;;;2.70;1.40;;;10.40;70.90;;;;;;5011422;28;20026;-74
2022/12/29 11:29:16;;;;;;;9.40;1.85;;;10.50;71.80;;;;;;5011471;28;20109;-74
2022/12/29 11:31:45;;;;;;;4.78;1.70;;;10.50;71.10;;;;;;5011128;28;20473;-74
2022/12/29 11:34:19;;;;;;;2.13;1.30;;;10.70;70.20;;;;;;5011554;28;20030;-79
2022/12/29 11:36:45;;;;;;;2.53;1.38;;;10.80;69.70;;;;;;5007032;28;20049;-74
2022/12/29 11:39:30;;;;;;;3.58;1.45;;;10.80;69.50;;;;;;5012235;28;20029;-77
2022/12/29 11:41:57;;;;;;;5.25;1.10;;;10.60;70.50;;;;;;5011929;28;20077;-74
2022/12/29 11:44:23;;;;;;;3.10;1.30;;;10.60;71.00;;;;;;5012187;28;20399;-74
2022/12/29 11:46:51;;;;;;;3.03;1.30;;;10.50;71.30;;;;;;5012403;28;20030;-74
2022/12/29 11:49:22;;;;;;;2.47;1.20;;;10.50;72.00;;;;;;5012121;28;20053;-74
2022/12/29 11:51:50;;;;;;;2.65;1.27;;;10.40;72.40;;;;;;5012479;28;20029;-74
2022/12/29 11:54:30;;;;;;;6.70;1.23;;;10.40;72.70;;;;;;5012052;28;20393;-74
2022/12/29 11:56:57;;;;;;;4.63;1.75;;;10.50;73.00;;;;;;5011547;28;20108;-74
2022/12/29 11:59:31;;;;;;;2.50;1.30;;;10.80;72.30;;;;;;5012253;28;20040;-74
2022/12/29 12:01:59;;;;;;;2.10;1.17;;;11.10;69.80;;;;;;5011979;28;20390;-74
2022/12/29 12:04:34;;;;;;;2.28;1.20;;;11.10;69.40;;;;;;5011969;28;20026;-74
2022/12/29 12:07:12;;;;;;;3.13;1.58;;;11.10;69.60;;;;;;5011665;28;20072;-74
2022/12/29 12:09:49;;;;;;;3.95;1.30;;;11.20;68.40;;;;;;5012049;28;20816;-74
2022/12/29 12:12:35;;;;;;;3.72;1.25;;;11.10;68.10;;;;;;5011914;28;20061;-74
2022/12/29 12:15:02;;;;;;;2.85;1.40;;;11.10;67.70;;;;;;5012040;28;20025;-76
2022/12/29 12:18:03;;;;;;;6.43;1.40;;;11.10;67.70;;;;;;5011979;28;20038;-74
2022/12/29 12:20:39;;;;;;;4.55;0.95;;;11.30;67.70;;;;;;5003140;28;20038;-73
2022/12/29 12:23:43;;;;;;;1.42;0.95;;;11.30;66.40;;;;;;5012359;28;20490;-74
2022/12/29 12:26:18;;;;;;;3.50;1.20;;;11.30;66.90;;;;;;5011861;28;20114;-74
2022/12/29 12:28:59;;;;;;;3.97;1.10;;;11.20;66.60;;;;;;5011729;28;20029;-73
2022/12/29 12:31:55;;;;;;;1.92;1.08;;;11.30;66.60;;;;;;5011811;28;20037;-74
2022/12/29 12:34:35;;;;;;;2.58;1.13;;;11.20;66.60;;;;;;5011309;28;20128;-73
2022/12/29 12:37:16;;;;;;;1.33;1.10;;;11.10;68.50;;;;;;5011508;28;20025;-74
2022/12/29 12:39:49;;;;;;;2.97;1.20;;;11.10;66.20;;;;;;5011785;28;20458;-74
2022/12/29 12:43:03;;;;;;;1.95;0.93;;;11.20;66.30;;;;;;5011685;28;20081;-74
2022/12/29 12:45:49;;;;;;;2.58;0.98;;;11.10;67.50;;;;;;5018391;28;20041;-73
2022/12/29 12:48:37;;;;;;;3.85;1.45;;;11.10;67.40;;;;;;4992166;28;20030;-74
2022/12/29 12:51:19;;;;;;;2.90;1.08;;;11.10;67.90;;;;;;4992103;28;20022;-74
2022/12/29 12:54:20;;;;;;;2.55;0.90;;;11.10;68.40;;;;;;4992134;28;20027;-74
2022/12/29 12:57:11;;;;;;;2.17;1.35;;;11.00;67.90;;;;;;5001389;28;20053;-73
2022/12/29 13:00:02;;;;;;;2.33;1.20;;;11.00;68.70;;;;;;4992188;28;20391;-73
2022/12/29 13:02:33;;;;;;;3.00;1.25;;;11.00;68.20;;;;;;4991980;28;20026;-73
2022/12/29 13:05:05;;;;;;;4.32;1.20;;;11.00;68.70;;;;;;4992256;28;20054;-73
2022/12/29 13:07:58;;;;;;;4.65;1.30;;;11.10;67.70;;;;;;4991777;28;20494;-74
2022/12/29 13:10:32;;;;;;;2.55;1.08;;;11.10;67.00;;;;;;4991848;28;20122;-74
2022/12/29 13:13:29;;;;;;;1.08;0.93;;;11.10;66.50;;;;;;4991775;28;20506;-73
2022/12/29 13:16:10;;;;;;;2.17;1.10;;;11.20;66.30;;;;;;4991643;28;20095;-75
2022/12/29 13:18:51;;;;;;;3.22;1.50;;;11.20;65.50;;;;;;4992413;28;20471;-77
2022/12/29 13:21:39;;;;;;;2.55;1.00;;;11.20;65.80;;;;;;4994773;28;20038;-73
2022/12/29 13:24:15;;;;;;;2.40;1.00;;;11.20;67.00;;;;;;4994502;28;20057;-73
2022/12/29 13:26:50;;;;;;;3.28;1.15;;;11.10;68.10;;;;;;4994944;28;20604;-75
2022/12/29 13:29:33;;;;;;;2.85;1.30;;;11.10;68.10;;;;;;4994943;28;20049;-73
2022/12/29 13:32:15;;;;;;;4.90;1.70;;;11.10;69.00;;;;;;4994914;28;20042;-73
2022/12/29 13:34:55;;;;;;;2.22;1.10;;;11.10;67.90;;;;;;4994102;28;20053;-73
2022/12/29 13:37:26;;;;;;;3.22;1.17;;;11.00;67.50;;;;;;4994388;28;20025;-74
2022/12/29 13:39:59;;;;;;;2.10;1.00;;;11.10;67.60;;;;;;4994620;28;20096;-73
2022/12/29 13:42:26;;;;;;;2.28;0.85;;;11.10;67.10;;;;;;4994414;28;20499;-73
2022/12/29 13:45:04;;;;;;;2.85;1.10;;;11.10;66.70;;;;;;4994179;28;20030;-73
2022/12/29 13:47:41;;;;;;;3.90;1.05;;;11.20;66.50;;;;;;4994077;28;20034;-73